Time;durP1;ratioP1;P1;durP2;ratioP2;P2;SDS_P1;SDS_P2;PMS_P1;PMS_P2;Temp;Humidity;BMP_temperature;BMP_pressure;BME280_temperature;BME280_humidity;BME280_pressure;Samples;Min_cycle;Max_cycle;Signal;HPM_P1;HPM_P2
2023/12/13 00:00:53;;;;;;;30.70;18.57;;;;;;;;;;5033535;28;20468;-71
2023/12/13 00:03:20;;;;;;;35.27;18.50;;;;;;;;;;5034034;28;20427;-71
2023/12/13 00:05:46;;;;;;;32.83;18.60;;;;;;;;;;5032818;28;20422;-71
2023/12/13 00:08:13;;;;;;;33.47;18.43;;;;;;;;;;5033156;28;20426;-71
2023/12/13 00:10:40;;;;;;;31.90;18.50;;;;;;;;;;5034080;28;21011;-71
2023/12/13 00:13:06;;;;;;;33.70;19.67;;;;;;;;;;5034170;28;20457;-71
2023/12/13 00:15:33;;;;;;;36.33;20.17;;;;;;;;;;5032614;28;20456;-71
2023/12/13 00:18:00;;;;;;;38.57;20.57;;;;;;;;;;5016315;28;20532;-71
2023/12/13 00:20:27;;;;;;;40.20;20.73;;;;;;;;;;5016596;28;20469;-72
2023/12/13 00:22:54;;;;;;;38.27;20.43;;;;;;;;;;5032578;28;20415;-71
2023/12/13 00:25:20;;;;;;;35.20;19.63;;;;;;;;;;5033593;28;20942;-72
2023/12/13 00:27:47;;;;;;;37.37;19.93;;;;;;;;;;5032690;28;20492;-71
2023/12/13 00:30:14;;;;;;;32.93;19.47;;;;;;;;;;5033830;28;20468;-70
2023/12/13 00:32:57;;;;;;;35.73;19.10;;;;;;;;;;5032577;28;20878;-73
2023/12/13 00:35:24;;;;;;;37.53;19.40;;;;;;;;;;5054859;28;20923;-72
2023/12/13 00:38:09;;;;;;;32.17;18.37;;;;;;;;;;5054194;28;20431;-72
2023/12/13 00:40:35;;;;;;;37.53;19.50;;;;;;;;;;5052462;28;20752;-72
2023/12/13 00:43:02;;;;;;;41.20;21.37;;;;;;;;;;5053489;28;20427;-72
2023/12/13 00:45:29;;;;;;;36.33;19.40;;;;;;;;;;5052317;28;20761;-73
2023/12/13 00:47:56;;;;;;;35.20;18.73;;;;;;;;;;5053595;28;20844;-72
2023/12/13 00:50:23;;;;;;;37.80;19.47;;;;;;;;;;5052241;28;20506;-73
2023/12/13 00:52:50;;;;;;;36.13;20.23;;;;;;;;;;5052171;28;20440;-72
2023/12/13 00:55:17;;;;;;;36.60;20.53;;;;;;;;;;5053911;28;20432;-73
2023/12/13 00:58:01;;;;;;;39.17;19.87;;;;;;;;;;5046100;28;20405;-72
2023/12/13 01:00:28;;;;;;;39.13;20.13;;;;;;;;;;5063688;28;20434;-72
2023/12/13 01:02:54;;;;;;;37.47;19.70;;;;;;;;;;5079775;28;20443;-73
2023/12/13 01:05:21;;;;;;;38.30;20.57;;;;;;;;;;5079645;28;20419;-73
2023/12/13 01:07:48;;;;;;;35.67;20.73;;;;;;;;;;5079676;28;20427;-72
2023/12/13 01:10:32;;;;;;;36.30;19.57;;;;;;;;;;5079497;28;20462;-72
2023/12/13 01:13:00;;;;;;;42.87;20.77;;;;;;;;;;5063319;28;20422;-73
2023/12/13 01:51:08;;;;;;;55.57;23.63;;;;;;;;;;5117129;28;20441;-72
2023/12/13 01:53:34;;;;;;;54.57;25.60;;;;;;;;;;5099154;28;20465;-72
2023/12/13 01:56:01;;;;;;;67.67;27.97;;;;;;;;;;5099629;28;20421;-72
2023/12/13 01:58:28;;;;;;;56.07;25.77;;;;;;;;;;5095473;28;20486;-72
2023/12/13 02:00:55;;;;;;;57.63;23.30;;;;;;;;;;5095731;28;20883;-72
2023/12/13 02:03:22;;;;;;;44.50;20.63;;;;;;;;;;5096826;28;20762;-73
2023/12/13 02:05:49;;;;;;;35.90;18.23;;;;;;;;;;5078299;28;20419;-73
2023/12/13 02:08:16;;;;;;;32.50;17.77;;;;;;;;;;5096413;28;20428;-73
2023/12/13 02:10:43;;;;;;;35.50;17.77;;;;;;;;;;5078576;28;20786;-72
2023/12/13 02:13:10;;;;;;;37.70;16.77;;;;;;;;;;5078604;28;20504;-72
2023/12/13 02:15:37;;;;;;;39.60;19.50;;;;;;;;;;5095160;28;20458;-73
2023/12/13 02:18:05;;;;;;;42.77;20.93;;;;;;;;;;5094951;28;20415;-73
2023/12/13 02:20:32;;;;;;;37.90;19.73;;;;;;;;;;5095156;28;20441;-73
2023/12/13 02:22:59;;;;;;;44.70;22.70;;;;;;;;;;5096473;28;20482;-72
2023/12/13 02:25:42;;;;;;;23.07;14.67;;;;;;;;;;5096151;28;20380;-72
2023/12/13 02:28:09;;;;;;;26.30;13.00;;;;;;;;;;5096072;28;20426;-72
2023/12/13 02:30:36;;;;;;;22.43;13.23;;;;;;;;;;5078076;28;20967;-73
2023/12/13 02:33:02;;;;;;;25.47;14.67;;;;;;;;;;5096564;28;20840;-73
2023/12/13 02:35:29;;;;;;;23.00;12.83;;;;;;;;;;5094942;28;20937;-72
2023/12/13 02:37:56;;;;;;;21.97;11.30;;;;;;;;;;5094964;28;20407;-73
2023/12/13 02:40:22;;;;;;;22.47;11.60;;;;;;;;;;5095758;28;20825;-72
2023/12/13 02:42:49;;;;;;;25.33;12.07;;;;;;;;;;5094511;28;20425;-72
2023/12/13 02:45:33;;;;;;;18.77;11.77;;;;;;;;;;5096266;28;20400;-72
2023/12/13 02:48:00;;;;;;;25.07;13.53;;;;;;;;;;5095034;28;20434;-72
2023/12/13 02:50:27;;;;;;;26.87;14.63;;;;;;;;;;5095596;28;20459;-72
2023/12/13 02:52:54;;;;;;;25.23;13.60;;;;;;;;;;5078261;28;20898;-72
2023/12/13 02:55:20;;;;;;;24.20;12.87;;;;;;;;;;5095584;28;20435;-73
2023/12/13 02:58:04;;;;;;;29.53;14.80;;;;;;;;;;5082734;28;20390;-72
2023/12/13 03:00:31;;;;;;;24.00;14.37;;;;;;;;;;5098665;28;20430;-72
2023/12/13 03:02:58;;;;;;;25.27;13.37;;;;;;;;;;5097683;28;20491;-72
2023/12/13 03:05:24;;;;;;;21.63;12.30;;;;;;;;;;5116235;28;20448;-72
2023/12/13 03:07:51;;;;;;;24.67;13.37;;;;;;;;;;5115856;28;20843;-72
2023/12/13 03:10:18;;;;;;;18.27;11.20;;;;;;;;;;5115446;28;20416;-73
2023/12/13 03:12:45;;;;;;;23.67;12.90;;;;;;;;;;5116052;28;20752;-73
2023/12/13 03:15:12;;;;;;;38.43;16.33;;;;;;;;;;5098149;28;20458;-73
2023/12/13 03:17:39;;;;;;;36.33;15.47;;;;;;;;;;5115451;28;20438;-73
2023/12/13 03:20:06;;;;;;;30.50;14.80;;;;;;;;;;5097615;28;20430;-72
2023/12/13 03:22:33;;;;;;;27.50;12.57;;;;;;;;;;5080643;28;20808;-72
2023/12/13 03:25:18;;;;;;;29.87;13.13;;;;;;;;;;5099975;28;20379;-72
2023/12/13 03:27:45;;;;;;;27.07;13.83;;;;;;;;;;5097424;28;20418;-72
2023/12/13 03:30:29;;;;;;;29.43;14.33;;;;;;;;;;5115103;28;20438;-71
2023/12/13 03:32:55;;;;;;;29.60;14.00;;;;;;;;;;5115261;28;20788;-73
2023/12/13 03:35:40;;;;;;;26.00;14.90;;;;;;;;;;5086103;28;20391;-73
2023/12/13 03:38:06;;;;;;;29.70;14.73;;;;;;;;;;5115012;28;20781;-73
2023/12/13 03:40:33;;;;;;;27.43;13.03;;;;;;;;;;5098122;28;20427;-72
2023/12/13 03:43:00;;;;;;;26.67;15.07;;;;;;;;;;5097372;28;20426;-72
2023/12/13 03:45:27;;;;;;;24.23;13.30;;;;;;;;;;5097438;28;20504;-72
2023/12/13 03:47:54;;;;;;;21.20;11.57;;;;;;;;;;5115478;28;20406;-73
2023/12/13 03:50:21;;;;;;;20.57;10.50;;;;;;;;;;5114892;28;20429;-72
2023/12/13 03:52:49;;;;;;;19.10;10.20;;;;;;;;;;5096830;28;20479;-73
2023/12/13 03:55:16;;;;;;;16.30;9.20;;;;;;;;;;5096966;28;20436;-72
2023/12/13 03:57:43;;;;;;;16.27;9.20;;;;;;;;;;5096629;28;20734;-73
2023/12/13 04:00:10;;;;;;;17.90;9.97;;;;;;;;;;5115059;28;20546;-73
2023/12/13 04:02:39;;;;;;;19.07;9.93;;;;;;;;;;5097251;28;20453;-72
2023/12/13 04:05:06;;;;;;;17.90;10.43;;;;;;;;;;5114631;28;20800;-73
2023/12/13 04:07:33;;;;;;;18.33;9.90;;;;;;;;;;5096850;28;20415;-72
2023/12/13 04:10:00;;;;;;;14.27;9.17;;;;;;;;;;5096466;28;20933;-72
2023/12/13 04:12:27;;;;;;;19.27;10.87;;;;;;;;;;5096492;28;20458;-72
2023/12/13 04:14:55;;;;;;;31.13;15.57;;;;;;;;;;5096351;28;20427;-72
2023/12/13 04:17:39;;;;;;;43.23;21.00;;;;;;;;;;5114310;28;20414;-73
2023/12/13 04:20:06;;;;;;;22.13;11.20;;;;;;;;;;5080060;28;20419;-72
2023/12/13 04:22:50;;;;;;;20.50;11.53;;;;;;;;;;5096557;28;20414;-73
2023/12/13 04:25:17;;;;;;;21.00;11.27;;;;;;;;;;5114627;28;20406;-72
2023/12/13 04:27:45;;;;;;;17.80;10.67;;;;;;;;;;5079459;28;20434;-73
2023/12/13 04:30:12;;;;;;;22.13;13.13;;;;;;;;;;5096045;28;20430;-72
2023/12/13 04:32:39;;;;;;;19.17;10.43;;;;;;;;;;5096386;28;20462;-72
2023/12/13 04:35:07;;;;;;;27.90;15.20;;;;;;;;;;5096322;28;20410;-73
2023/12/13 04:37:34;;;;;;;17.70;11.03;;;;;;;;;;5096466;28;20476;-73
2023/12/13 04:40:02;;;;;;;16.00;9.67;;;;;;;;;;5114014;28;20468;-72
2023/12/13 04:42:29;;;;;;;18.10;10.50;;;;;;;;;;5096020;28;20920;-72
2023/12/13 04:44:55;;;;;;;19.03;10.83;;;;;;;;;;5096169;28;20426;-73
2023/12/13 04:47:22;;;;;;;19.03;10.23;;;;;;;;;;5096189;28;20988;-72
2023/12/13 04:49:49;;;;;;;18.13;10.47;;;;;;;;;;5113906;28;20414;-70
2023/12/13 04:52:15;;;;;;;19.13;9.97;;;;;;;;;;5113852;28;20458;-70
2023/12/13 04:54:42;;;;;;;16.57;9.80;;;;;;;;;;5096132;28;20437;-74
2023/12/13 04:57:08;;;;;;;19.67;9.60;;;;;;;;;;5096743;28;20414;-73
2023/12/13 04:59:35;;;;;;;16.13;9.27;;;;;;;;;;5095852;28;20467;-73
2023/12/13 05:02:02;;;;;;;18.37;9.67;;;;;;;;;;5095920;28;20483;-72
2023/12/13 05:04:29;;;;;;;18.67;10.87;;;;;;;;;;5112918;28;20920;-72
2023/12/13 05:06:56;;;;;;;19.23;10.60;;;;;;;;;;5096284;28;20449;-72
2023/12/13 05:09:22;;;;;;;18.27;9.97;;;;;;;;;;5096522;28;20780;-72
2023/12/13 05:11:49;;;;;;;19.40;11.53;;;;;;;;;;5095706;28;20547;-72
2023/12/13 05:14:15;;;;;;;28.07;16.27;;;;;;;;;;5054852;28;20959;-69
2023/12/13 05:16:42;;;;;;;22.37;13.00;;;;;;;;;;5062603;28;20777;-70
2023/12/13 05:19:09;;;;;;;21.23;12.90;;;;;;;;;;5045842;28;20540;-70
2023/12/13 05:21:36;;;;;;;21.50;12.20;;;;;;;;;;5064208;28;20945;-71
2023/12/13 05:24:02;;;;;;;21.70;11.43;;;;;;;;;;5063912;28;20440;-70
2023/12/13 05:26:29;;;;;;;21.43;11.87;;;;;;;;;;5064088;28;20432;-71
2023/12/13 05:28:56;;;;;;;27.63;15.87;;;;;;;;;;5063835;28;20981;-70
2023/12/13 05:31:23;;;;;;;46.57;23.37;;;;;;;;;;5063853;28;20854;-72
2023/12/13 05:33:50;;;;;;;35.77;19.97;;;;;;;;;;5045953;28;20929;-68
2023/12/13 05:36:16;;;;;;;23.77;14.10;;;;;;;;;;5045660;28;21939;-70
2023/12/13 05:38:43;;;;;;;46.93;26.27;;;;;;;;;;5045833;28;20498;-69
2023/12/13 05:41:10;;;;;;;46.20;26.20;;;;;;;;;;5064818;28;20893;-69
2023/12/13 05:43:36;;;;;;;37.27;22.67;;;;;;;;;;5066227;28;20425;-68
2023/12/13 05:46:04;;;;;;;28.87;15.90;;;;;;;;;;5049489;28;20424;-69
2023/12/13 05:48:31;;;;;;;29.43;18.07;;;;;;;;;;5049669;28;20446;-67
2023/12/13 05:50:59;;;;;;;23.63;13.90;;;;;;;;;;5065791;28;20467;-68
2023/12/13 05:53:25;;;;;;;26.43;14.73;;;;;;;;;;5067417;28;20424;-69
2023/12/13 05:55:52;;;;;;;24.63;14.17;;;;;;;;;;5067604;28;20513;-69
2023/12/13 05:58:19;;;;;;;23.60;15.00;;;;;;;;;;5049437;28;20490;-69
2023/12/13 06:00:46;;;;;;;21.53;12.50;;;;;;;;;;5067101;28;21299;-70
2023/12/13 06:03:30;;;;;;;19.27;11.37;;;;;;;;;;5051857;28;20740;-70
2023/12/13 06:05:57;;;;;;;18.60;12.30;;;;;;;;;;5067380;28;20741;-72
2023/12/13 06:08:24;;;;;;;18.03;11.27;;;;;;;;;;5067152;28;20431;-71
2023/12/13 06:10:51;;;;;;;20.90;13.17;;;;;;;;;;5066888;28;20933;-70
2023/12/13 06:13:18;;;;;;;23.07;13.43;;;;;;;;;;5055109;28;20456;-70
2023/12/13 06:15:45;;;;;;;25.17;14.37;;;;;;;;;;5066988;28;20519;-71
2023/12/13 06:18:13;;;;;;;20.90;12.13;;;;;;;;;;5066891;28;20939;-72
2023/12/13 06:20:39;;;;;;;19.63;11.90;;;;;;;;;;5048421;28;20444;-71
2023/12/13 06:23:06;;;;;;;26.00;11.67;;;;;;;;;;5065379;28;20440;-70
2023/12/13 06:25:33;;;;;;;17.87;10.47;;;;;;;;;;5066772;28;20466;-69
2023/12/13 06:28:00;;;;;;;16.43;10.17;;;;;;;;;;5066916;28;20443;-70
2023/12/13 06:30:26;;;;;;;16.50;9.77;;;;;;;;;;5066542;28;20429;-71
2023/12/13 06:32:53;;;;;;;17.63;9.63;;;;;;;;;;5065217;28;20475;-72
2023/12/13 06:35:20;;;;;;;17.53;9.77;;;;;;;;;;5048566;28;21035;-72
2023/12/13 06:37:48;;;;;;;16.00;9.17;;;;;;;;;;5066345;28;20535;-71
2023/12/13 06:40:15;;;;;;;16.17;9.07;;;;;;;;;;5048579;28;20439;-72
2023/12/13 06:42:42;;;;;;;14.57;8.67;;;;;;;;;;5048469;28;20506;-73
2023/12/13 06:45:09;;;;;;;16.10;9.27;;;;;;;;;;5048761;28;20412;-72
2023/12/13 06:47:36;;;;;;;14.83;8.50;;;;;;;;;;5031751;28;20464;-71
2023/12/13 06:50:03;;;;;;;16.60;9.60;;;;;;;;;;5071270;28;20426;-72
2023/12/13 06:52:31;;;;;;;21.03;11.97;;;;;;;;;;5057086;28;20799;-72
2023/12/13 06:54:58;;;;;;;19.67;11.33;;;;;;;;;;5076118;28;20452;-71
2023/12/13 06:57:25;;;;;;;21.83;11.77;;;;;;;;;;5075953;28;20464;-71
2023/12/13 06:59:52;;;;;;;26.43;13.03;;;;;;;;;;5075933;28;20460;-72
2023/12/13 07:02:19;;;;;;;25.93;13.03;;;;;;;;;;5074320;28;20425;-72
2023/12/13 07:04:46;;;;;;;21.70;11.47;;;;;;;;;;5074213;28;20971;-72
2023/12/13 07:07:15;;;;;;;17.93;10.33;;;;;;;;;;5075451;28;20431;-72
2023/12/13 07:09:44;;;;;;;23.37;12.77;;;;;;;;;;5081513;28;20774;-71
2023/12/13 07:12:11;;;;;;;20.93;10.43;;;;;;;;;;5094596;28;20455;-72
2023/12/13 07:14:38;;;;;;;22.27;10.23;;;;;;;;;;5070773;28;20440;-72
2023/12/13 07:17:05;;;;;;;18.73;11.10;;;;;;;;;;5057614;28;20548;-72
2023/12/13 07:19:32;;;;;;;19.60;11.30;;;;;;;;;;5073830;28;20428;-69
2023/12/13 07:22:01;;;;;;;21.77;11.43;;;;;;;;;;5075277;28;20430;-70
2023/12/13 07:24:30;;;;;;;18.93;10.50;;;;;;;;;;5041455;28;20544;-71
2023/12/13 07:26:57;;;;;;;22.80;11.47;;;;;;;;;;5041412;28;20431;-69
2023/12/13 07:29:24;;;;;;;21.20;8.87;;;;;;;;;;5041199;28;20424;-72
2023/12/13 07:31:53;;;;;;;19.33;10.40;;;;;;;;;;5037357;28;20523;-72
2023/12/13 07:34:20;;;;;;;19.63;12.03;;;;;;;;;;5085912;28;20423;-71
2023/12/13 07:36:49;;;;;;;19.07;10.37;;;;;;;;;;5067717;28;20426;-71
2023/12/13 07:39:16;;;;;;;15.40;8.37;;;;;;;;;;5085801;28;20415;-72
2023/12/13 07:41:42;;;;;;;10.70;7.23;;;;;;;;;;5067509;28;20427;-70
2023/12/13 07:44:10;;;;;;;25.70;11.57;;;;;;;;;;5067634;28;20430;-72
2023/12/13 07:46:38;;;;;;;15.23;9.10;;;;;;;;;;5066926;28;20439;-71
2023/12/13 07:49:05;;;;;;;15.60;8.90;;;;;;;;;;5042986;28;20452;-72
2023/12/13 07:51:50;;;;;;;13.97;9.30;;;;;;;;;;5050104;28;20526;-72
2023/12/13 07:54:18;;;;;;;14.07;8.83;;;;;;;;;;5047233;28;20419;-71
2023/12/13 07:56:45;;;;;;;14.60;7.10;;;;;;;;;;5014236;28;20475;-70
2023/12/13 07:59:12;;;;;;;20.70;11.10;;;;;;;;;;5030280;28;20473;-73
2023/12/13 08:05:38;;;;;;;18.33;8.67;;;;;;;;;;5064864;28;20744;-70
2023/12/13 08:08:05;;;;;;;13.43;8.00;;;;;;;;;;5046808;28;20413;-71
2023/12/13 08:10:32;;;;;;;11.97;7.00;;;;;;;;;;5014364;28;20542;-70
2023/12/13 08:12:59;;;;;;;15.07;8.20;;;;;;;;;;5030973;28;20496;-68
2023/12/13 08:15:26;;;;;;;17.57;10.83;;;;;;;;;;5065918;28;20431;-68
2023/12/13 08:17:54;;;;;;;16.00;10.03;;;;;;;;;;5047372;28;20821;-70
2023/12/13 08:20:21;;;;;;;17.10;8.77;;;;;;;;;;5047327;28;20443;-71
2023/12/13 08:22:49;;;;;;;15.23;8.90;;;;;;;;;;5047184;28;20489;-72
2023/12/13 08:25:16;;;;;;;13.77;8.33;;;;;;;;;;5030168;28;20433;-71
2023/12/13 08:27:43;;;;;;;14.60;7.77;;;;;;;;;;5064839;28;20439;-71
2023/12/13 08:30:10;;;;;;;14.73;7.60;;;;;;;;;;5019224;28;20444;-71
2023/12/13 08:32:37;;;;;;;14.00;6.90;;;;;;;;;;5046735;28;20460;-72
2023/12/13 08:35:05;;;;;;;13.40;6.73;;;;;;;;;;5063581;28;20501;-71
2023/12/13 08:37:32;;;;;;;12.80;7.33;;;;;;;;;;5065116;28;20921;-71
2023/12/13 08:40:00;;;;;;;13.47;6.83;;;;;;;;;;5066877;28;20427;-70
2023/12/13 08:42:27;;;;;;;12.07;6.90;;;;;;;;;;5066484;28;20427;-69
2023/12/13 08:45:06;;;;;;;12.80;6.87;;;;;;;;;;5083502;28;20186;-71
2023/12/13 08:47:33;;;;;;;13.60;7.43;;;;;;;;;;5067105;28;20433;-71
2023/12/13 08:50:00;;;;;;;14.63;7.07;;;;;;;;;;5066316;28;20432;-71
2023/12/13 08:52:27;;;;;;;15.03;8.33;;;;;;;;;;5084390;28;20209;-74
2023/12/13 08:54:54;;;;;;;12.60;7.50;;;;;;;;;;5083099;28;20481;-74
2023/12/13 08:57:21;;;;;;;11.43;7.57;;;;;;;;;;5066278;28;20189;-69
2023/12/13 08:59:50;;;;;;;13.07;7.27;;;;;;;;;;5066809;28;20443;-72
2023/12/13 09:02:30;;;;;;;9.43;6.17;;;;;;;;;;5066359;28;20185;-73
2023/12/13 09:04:57;;;;;;;13.47;6.60;;;;;;;;;;5084643;28;20196;-72
2023/12/13 09:07:24;;;;;;;10.40;6.10;;;;;;;;;;5084539;28;20223;-72
2023/12/13 09:09:51;;;;;;;9.13;6.10;;;;;;;;;;5066546;28;20708;-71
2023/12/13 09:12:17;;;;;;;10.63;6.20;;;;;;;;;;5084645;28;20673;-70
2023/12/13 09:14:45;;;;;;;9.23;6.03;;;;;;;;;;5084538;28;20423;-70
2023/12/13 09:17:13;;;;;;;11.97;6.73;;;;;;;;;;5086945;28;20475;-71
2023/12/13 09:19:40;;;;;;;9.40;6.67;;;;;;;;;;5069869;28;20471;-70
2023/12/13 09:22:09;;;;;;;12.33;6.43;;;;;;;;;;5070579;28;20208;-73
2023/12/13 09:24:37;;;;;;;10.20;6.60;;;;;;;;;;5086841;28;20430;-71
2023/12/13 09:27:06;;;;;;;10.40;6.73;;;;;;;;;;5086686;28;20185;-72
2023/12/13 09:29:50;;;;;;;9.27;6.27;;;;;;;;;;5072928;28;20173;-71
2023/12/13 09:32:17;;;;;;;9.10;6.17;;;;;;;;;;5074956;28;20479;-74
2023/12/13 09:34:44;;;;;;;10.47;6.57;;;;;;;;;;5088130;28;20195;-71
2023/12/13 09:37:11;;;;;;;10.40;6.80;;;;;;;;;;5087879;28;20522;-72
2023/12/13 09:39:38;;;;;;;10.67;6.57;;;;;;;;;;5087896;28;20200;-72
2023/12/13 09:42:04;;;;;;;10.50;6.90;;;;;;;;;;5069471;28;20755;-73
2023/12/13 09:44:35;;;;;;;10.57;6.67;;;;;;;;;;5087784;28;20556;-70
2023/12/13 09:47:03;;;;;;;9.27;6.47;;;;;;;;;;5087894;28;20620;-71
2023/12/13 09:49:31;;;;;;;10.93;6.63;;;;;;;;;;5088044;28;20185;-70
2023/12/13 09:52:06;;;;;;;11.83;6.97;;;;;;;;;;5087719;28;20232;-72
2023/12/13 09:54:51;;;;;;;11.70;6.63;;;;;;;;;;5087705;28;20524;-71
2023/12/13 09:57:17;;;;;;;9.00;5.90;;;;;;;;;;5069737;28;20189;-72
2023/12/13 09:59:46;;;;;;;9.93;5.50;;;;;;;;;;5087035;28;20217;-72
2023/12/13 10:02:14;;;;;;;12.27;6.40;;;;;;;;;;5067605;28;20634;-72
2023/12/13 10:04:41;;;;;;;10.83;5.50;;;;;;;;;;5087055;28;20204;-72
2023/12/13 10:07:08;;;;;;;9.80;6.10;;;;;;;;;;5068736;28;20739;-71
2023/12/13 10:09:35;;;;;;;10.10;6.17;;;;;;;;;;5086766;28;20178;-69
2023/12/13 10:12:04;;;;;;;10.77;6.63;;;;;;;;;;5085160;28;20452;-71
2023/12/13 10:14:32;;;;;;;10.40;5.80;;;;;;;;;;5068747;28;20260;-72
2023/12/13 10:16:59;;;;;;;9.90;5.80;;;;;;;;;;5051596;28;20254;-71
2023/12/13 10:19:44;;;;;;;9.00;5.33;;;;;;;;;;5053763;28;20274;-73
2023/12/13 10:22:11;;;;;;;7.83;5.10;;;;;;;;;;5068721;28;20430;-70
2023/12/13 10:24:38;;;;;;;7.17;4.87;;;;;;;;;;5068328;28;20276;-71
2023/12/13 10:27:05;;;;;;;7.33;4.63;;;;;;;;;;5085486;28;20202;-73
2023/12/13 10:29:32;;;;;;;7.33;4.60;;;;;;;;;;5067778;28;20188;-69
2023/12/13 10:31:59;;;;;;;8.73;5.13;;;;;;;;;;5074799;28;20467;-69
2023/12/13 10:34:27;;;;;;;9.20;5.50;;;;;;;;;;5086248;28;20503;-70
2023/12/13 10:37:12;;;;;;;11.20;5.90;;;;;;;;;;5071085;28;20185;-70
2023/12/13 10:39:42;;;;;;;9.80;5.50;;;;;;;;;;5068715;28;20431;-70
2023/12/13 10:42:11;;;;;;;9.30;5.60;;;;;;;;;;5068874;28;20645;-69
2023/12/13 10:44:39;;;;;;;10.20;5.40;;;;;;;;;;5052219;28;20439;-72
2023/12/13 10:47:07;;;;;;;10.57;5.27;;;;;;;;;;5035657;28;21549;-72
2023/12/13 10:49:35;;;;;;;10.53;5.33;;;;;;;;;;5086848;28;20218;-72
2023/12/13 10:52:04;;;;;;;10.10;5.33;;;;;;;;;;5068923;28;20169;-70
2023/12/13 10:54:31;;;;;;;7.13;5.00;;;;;;;;;;5052216;28;20230;-72
2023/12/13 10:57:15;;;;;;;9.60;5.70;;;;;;;;;;5040240;28;20516;-72
2023/12/13 10:59:42;;;;;;;7.50;4.70;;;;;;;;;;5068494;28;20217;-72
2023/12/13 11:02:09;;;;;;;8.03;5.13;;;;;;;;;;5068400;28;20276;-71
2023/12/13 11:04:36;;;;;;;8.83;5.23;;;;;;;;;;5051838;28;20948;-72
2023/12/13 11:07:04;;;;;;;8.30;4.97;;;;;;;;;;5068387;28;20435;-72
2023/12/13 11:09:36;;;;;;;10.20;4.93;;;;;;;;;;5069097;28;20251;-71
2023/12/13 11:12:09;;;;;;;7.13;4.43;;;;;;;;;;5051473;28;20265;-71
2023/12/13 11:14:37;;;;;;;8.43;4.80;;;;;;;;;;5051819;28;20190;-72
2023/12/13 11:17:03;;;;;;;6.33;4.10;;;;;;;;;;5068147;28;20679;-70
2023/12/13 11:19:31;;;;;;;5.97;4.23;;;;;;;;;;5086108;28;20270;-70
2023/12/13 11:21:58;;;;;;;8.00;3.90;;;;;;;;;;5086247;28;20434;-70
2023/12/13 11:24:26;;;;;;;7.00;4.00;;;;;;;;;;5068268;28;20194;-72
2023/12/13 11:26:53;;;;;;;6.80;4.47;;;;;;;;;;5086018;28;20536;-76
2023/12/13 11:29:22;;;;;;;6.17;4.47;;;;;;;;;;5067821;28;20435;-73
2023/12/13 11:31:52;;;;;;;6.20;4.33;;;;;;;;;;5074390;28;20873;-73
2023/12/13 11:34:32;;;;;;;7.27;4.40;;;;;;;;;;5085771;28;20245;-71
2023/12/13 11:37:00;;;;;;;7.77;3.97;;;;;;;;;;5085737;28;20430;-69
2023/12/13 11:39:29;;;;;;;6.80;4.57;;;;;;;;;;5050627;28;20516;-70
2023/12/13 11:42:00;;;;;;;10.13;5.70;;;;;;;;;;5051622;28;20194;-70
2023/12/13 11:44:28;;;;;;;12.07;6.07;;;;;;;;;;5085755;28;20191;-72
2023/12/13 11:46:56;;;;;;;10.57;6.00;;;;;;;;;;5051526;28;20668;-73
2023/12/13 11:49:25;;;;;;;9.73;5.70;;;;;;;;;;5067568;28;20185;-72
2023/12/13 11:51:53;;;;;;;9.77;5.77;;;;;;;;;;5051734;28;20423;-73
2023/12/13 11:54:20;;;;;;;8.40;5.40;;;;;;;;;;5067757;28;20213;-73
2023/12/13 11:56:47;;;;;;;8.80;5.50;;;;;;;;;;5085624;28;20189;-71
2023/12/13 11:59:14;;;;;;;8.47;5.27;;;;;;;;;;5085552;28;20229;-70
2023/12/13 12:01:41;;;;;;;9.67;5.27;;;;;;;;;;5085347;28;20186;-70
2023/12/13 12:04:11;;;;;;;9.23;5.70;;;;;;;;;;5050582;28;20189;-70
2023/12/13 12:06:44;;;;;;;9.23;5.43;;;;;;;;;;5051399;28;20279;-71
2023/12/13 12:09:11;;;;;;;9.83;5.80;;;;;;;;;;5067968;28;20441;-69
2023/12/13 12:11:38;;;;;;;14.57;7.27;;;;;;;;;;5085665;28;20190;-71
2023/12/13 12:14:08;;;;;;;18.63;10.13;;;;;;;;;;5067517;28;20232;-71
2023/12/13 12:16:36;;;;;;;24.73;15.37;;;;;;;;;;5066914;28;21696;-69
2023/12/13 12:19:04;;;;;;;47.13;24.13;;;;;;;;;;5049930;28;20450;-70
2023/12/13 12:21:34;;;;;;;32.17;17.03;;;;;;;;;;5067091;28;20184;-70
2023/12/13 12:24:01;;;;;;;21.30;11.47;;;;;;;;;;5085277;28;20190;-72
2023/12/13 12:26:28;;;;;;;12.87;7.67;;;;;;;;;;5067162;28;20263;-70
2023/12/13 12:28:55;;;;;;;14.13;8.30;;;;;;;;;;5084980;28;20420;-70
2023/12/13 12:31:22;;;;;;;12.33;5.70;;;;;;;;;;5055024;28;20680;-71
2023/12/13 12:33:56;;;;;;;14.27;7.20;;;;;;;;;;5049117;28;20245;-72
2023/12/13 12:36:23;;;;;;;27.27;12.50;;;;;;;;;;5066734;28;20933;-70
2023/12/13 12:38:50;;;;;;;24.77;12.80;;;;;;;;;;5084823;28;20185;-73
2023/12/13 12:41:17;;;;;;;20.70;10.23;;;;;;;;;;5084907;28;20416;-71
2023/12/13 12:43:46;;;;;;;22.33;9.43;;;;;;;;;;5050026;28;20424;-73
2023/12/13 12:46:15;;;;;;;19.23;9.07;;;;;;;;;;5066572;28;20181;-71
2023/12/13 12:48:42;;;;;;;33.40;13.47;;;;;;;;;;5050376;28;20191;-77
2023/12/13 12:51:09;;;;;;;55.43;24.03;;;;;;;;;;5049725;28;20492;-69
2023/12/13 12:53:36;;;;;;;33.37;16.10;;;;;;;;;;5066292;28;20205;-70
2023/12/13 12:56:03;;;;;;;21.40;10.03;;;;;;;;;;5047666;28;20436;-71
2023/12/13 12:58:37;;;;;;;25.00;12.97;;;;;;;;;;5030413;28;20471;-72
2023/12/13 13:01:21;;;;;;;11.07;6.80;;;;;;;;;;5049792;28;20166;-72
2023/12/13 13:03:50;;;;;;;12.40;7.30;;;;;;;;;;5046726;28;20232;-70
2023/12/13 13:06:18;;;;;;;13.70;7.10;;;;;;;;;;5047065;28;20540;-71
2023/12/13 13:08:45;;;;;;;9.27;5.00;;;;;;;;;;5046713;28;20464;-70
2023/12/13 13:11:11;;;;;;;11.93;5.50;;;;;;;;;;5064402;28;20475;-70
2023/12/13 13:13:56;;;;;;;9.03;4.93;;;;;;;;;;5048744;28;20251;-72
2023/12/13 13:16:23;;;;;;;10.77;5.03;;;;;;;;;;5063991;28;20220;-70
2023/12/13 13:18:51;;;;;;;11.30;5.93;;;;;;;;;;5046602;28;20635;-73
2023/12/13 13:21:18;;;;;;;12.33;6.00;;;;;;;;;;5029790;28;20452;-71
2023/12/13 13:23:45;;;;;;;15.90;7.63;;;;;;;;;;5045991;28;20194;-69
2023/12/13 13:26:12;;;;;;;15.93;8.43;;;;;;;;;;5064652;28;20424;-69
2023/12/13 13:28:38;;;;;;;11.00;6.97;;;;;;;;;;5046369;28;20188;-70
2023/12/13 13:31:05;;;;;;;11.17;6.20;;;;;;;;;;5052902;28;20462;-70
2023/12/13 13:33:32;;;;;;;10.17;4.63;;;;;;;;;;5062690;28;20284;-71
2023/12/13 13:35:59;;;;;;;8.03;4.57;;;;;;;;;;5062664;28;20190;-72
2023/12/13 13:38:28;;;;;;;8.33;4.87;;;;;;;;;;5064014;28;20436;-71
2023/12/13 13:41:13;;;;;;;8.50;4.63;;;;;;;;;;5074159;28;20423;-70
2023/12/13 13:43:41;;;;;;;8.03;4.27;;;;;;;;;;5034166;28;20557;-71
2023/12/13 13:46:08;;;;;;;11.73;4.50;;;;;;;;;;5062327;28;20202;-71
2023/12/13 13:48:35;;;;;;;6.57;4.07;;;;;;;;;;5062552;28;20425;-71
2023/12/13 13:51:02;;;;;;;8.23;4.50;;;;;;;;;;5064101;28;20424;-70
2023/12/13 13:53:29;;;;;;;10.20;5.60;;;;;;;;;;5046081;28;20472;-73
2023/12/13 13:55:57;;;;;;;22.23;9.23;;;;;;;;;;5063916;28;20417;-70
2023/12/13 13:58:24;;;;;;;16.30;7.30;;;;;;;;;;5071440;28;20503;-71
2023/12/13 14:00:51;;;;;;;13.23;6.63;;;;;;;;;;5072817;28;20416;-71
2023/12/13 14:03:18;;;;;;;18.77;7.30;;;;;;;;;;5074507;28;20431;-71
2023/12/13 14:05:45;;;;;;;15.83;7.57;;;;;;;;;;5075183;28;20493;-71
2023/12/13 14:08:29;;;;;;;20.87;10.27;;;;;;;;;;5077147;28;20154;-71
2023/12/13 14:10:57;;;;;;;15.93;8.83;;;;;;;;;;5076786;28;20273;-71
2023/12/13 14:13:24;;;;;;;32.70;15.00;;;;;;;;;;5075005;28;20287;-71
2023/12/13 14:15:51;;;;;;;36.47;18.00;;;;;;;;;;5075452;28;20436;-71
2023/12/13 14:18:19;;;;;;;22.17;12.57;;;;;;;;;;5058607;28;20209;-71
2023/12/13 14:20:48;;;;;;;57.17;24.83;;;;;;;;;;5043639;28;20223;-68
2023/12/13 14:23:16;;;;;;;19.97;11.77;;;;;;;;;;5066915;28;20496;-69
2023/12/13 14:25:43;;;;;;;15.30;8.23;;;;;;;;;;5087207;28;20201;-68
2023/12/13 14:28:10;;;;;;;10.07;5.20;;;;;;;;;;5069067;28;20434;-69
2023/12/13 14:30:37;;;;;;;22.97;9.07;;;;;;;;;;5086785;28;20427;-68
2023/12/13 14:33:05;;;;;;;24.90;9.80;;;;;;;;;;5068969;28;20228;-69
2023/12/13 14:35:32;;;;;;;29.70;11.53;;;;;;;;;;5087077;28;20445;-69
2023/12/13 14:37:59;;;;;;;46.10;17.23;;;;;;;;;;5052568;28;20416;-68
2023/12/13 14:40:27;;;;;;;24.03;9.67;;;;;;;;;;5068722;28;20450;-68
2023/12/13 14:42:54;;;;;;;8.37;4.20;;;;;;;;;;5086268;28;20189;-68
2023/12/13 14:45:21;;;;;;;17.83;7.53;;;;;;;;;;5052331;28;20450;-71
2023/12/13 14:47:48;;;;;;;17.73;9.13;;;;;;;;;;5068666;28;20181;-68
2023/12/13 14:50:15;;;;;;;23.00;11.57;;;;;;;;;;5086604;28;20451;-71
2023/12/13 14:52:43;;;;;;;14.90;8.60;;;;;;;;;;5035509;28;20653;-69
2023/12/13 14:55:10;;;;;;;16.87;8.97;;;;;;;;;;5051795;28;20463;-71
2023/12/13 14:57:37;;;;;;;11.70;6.43;;;;;;;;;;5068666;28;20434;-68
2023/12/13 15:00:08;;;;;;;15.27;7.83;;;;;;;;;;5086671;28;20530;-68
2023/12/13 15:02:35;;;;;;;12.23;6.90;;;;;;;;;;5085143;28;20463;-69
2023/12/13 15:05:03;;;;;;;10.07;5.20;;;;;;;;;;5068289;28;20516;-69
2023/12/13 15:07:31;;;;;;;8.57;5.17;;;;;;;;;;5052108;28;20438;-69
2023/12/13 15:10:00;;;;;;;8.47;4.87;;;;;;;;;;5069490;28;20506;-68
2023/12/13 15:12:27;;;;;;;36.90;26.30;;;;;;;;;;5086397;28;20477;-67